sensor_id;sensor_type;location;lat;lon;timestamp;temperature;humidity
54082;DHT22;39986;50.770;0.266;2022-09-01T00:01:28;19.10;99.90
54082;DHT22;39986;50.770;0.266;2022-09-01T00:03:57;19.20;99.90
54082;DHT22;39986;50.770;0.266;2022-09-01T00:06:27;19.10;99.90
54082;DHT22;39986;50.770;0.266;2022-09-01T00:08:55;19.20;99.90
54082;DHT22;39986;50.770;0.266;2022-09-01T00:11:22;19.20;99.90
54082;DHT22;39986;50.770;0.266;2022-09-01T00:13:48;19.20;99.90
54082;DHT22;39986;50.770;0.266;2022-09-01T00:16:14;19.20;99.90
54082;DHT22;39986;50.770;0.266;2022-09-01T00:18:41;19.10;99.90
54082;DHT22;39986;50.770;0.266;2022-09-01T00:21:07;19.00;99.90
54082;DHT22;39986;50.770;0.266;2022-09-01T00:23:33;19.00;99.90
54082;DHT22;39986;50.770;0.266;2022-09-01T00:25:58;19.00;99.90
54082;DHT22;39986;50.770;0.266;2022-09-01T00:28:24;19.00;99.90
54082;DHT22;39986;50.770;0.266;2022-09-01T00:30:49;19.00;99.90
54082;DHT22;39986;50.770;0.266;2022-09-01T00:33:15;19.10;99.90
54082;DHT22;39986;50.770;0.266;2022-09-01T00:35:40;19.00;99.90
54082;DHT22;39986;50.770;0.266;2022-09-01T00:38:06;19.10;99.90
54082;DHT22;39986;50.770;0.266;2022-09-01T00:40:32;19.20;99.90
54082;DHT22;39986;50.770;0.266;2022-09-01T00:42:58;19.20;99.90
54082;DHT22;39986;50.770;0.266;2022-09-01T00:45:24;19.20;99.90
54082;DHT22;39986;50.770;0.266;2022-09-01T00:47:50;19.20;99.90
54082;DHT22;39986;50.770;0.266;2022-09-01T00:50:16;19.20;99.90
54082;DHT22;39986;50.770;0.266;2022-09-01T00:52:46;19.20;99.90
54082;DHT22;39986;50.770;0.266;2022-09-01T00:55:14;19.20;99.90
54082;DHT22;39986;50.770;0.266;2022-09-01T00:57:40;19.30;99.90
54082;DHT22;39986;50.770;0.266;2022-09-01T01:00:14;19.20;99.90
54082;DHT22;39986;50.770;0.266;2022-09-01T01:02:41;19.30;99.90
54082;DHT22;39986;50.770;0.266;2022-09-01T01:05:07;19.20;99.90
54082;DHT22;39986;50.770;0.266;2022-09-01T01:07:33;19.20;99.90
54082;DHT22;39986;50.770;0.266;2022-09-01T01:10:04;19.20;99.90
54082;DHT22;39986;50.770;0.266;2022-09-01T01:12:30;19.20;99.90
54082;DHT22;39986;50.770;0.266;2022-09-01T01:14:55;19.20;99.90
54082;DHT22;39986;50.770;0.266;2022-09-01T01:17:22;19.10;99.90
54082;DHT22;39986;50.770;0.266;2022-09-01T01:19:49;19.10;99.90
54082;DHT22;39986;50.770;0.266;2022-09-01T01:22:49;19.10;99.90
54082;DHT22;39986;50.770;0.266;2022-09-01T01:25:27;19.00;99.90
54082;DHT22;39986;50.770;0.266;2022-09-01T01:28:02;19.10;99.90
54082;DHT22;39986;50.770;0.266;2022-09-01T01:30:28;19.10;99.90
54082;DHT22;39986;50.770;0.266;2022-09-01T01:32:59;19.00;99.90
54082;DHT22;39986;50.770;0.266;2022-09-01T01:35:26;19.00;99.90
54082;DHT22;39986;50.770;0.266;2022-09-01T01:37:52;19.00;99.90
54082;DHT22;39986;50.770;0.266;2022-09-01T01:40:19;18.90;99.90
54082;DHT22;39986;50.770;0.266;2022-09-01T01:42:47;18.90;99.90
54082;DHT22;39986;50.770;0.266;2022-09-01T01:45:14;19.00;99.90
54082;DHT22;39986;50.770;0.266;2022-09-01T01:47:44;19.10;99.90
54082;DHT22;39986;50.770;0.266;2022-09-01T01:50:15;19.10;99.90
54082;DHT22;39986;50.770;0.266;2022-09-01T01:52:41;19.20;99.90
54082;DHT22;39986;50.770;0.266;2022-09-01T01:55:07;19.20;99.90
54082;DHT22;39986;50.770;0.266;2022-09-01T01:57:37;19.20;99.90
54082;DHT22;39986;50.770;0.266;2022-09-01T02:00:04;19.20;99.90
54082;DHT22;39986;50.770;0.266;2022-09-01T02:02:29;19.20;99.90
54082;DHT22;39986;50.770;0.266;2022-09-01T02:04:55;19.30;99.90
54082;DHT22;39986;50.770;0.266;2022-09-01T02:07:21;19.20;99.90
54082;DHT22;39986;50.770;0.266;2022-09-01T02:09:47;19.30;99.90
54082;DHT22;39986;50.770;0.266;2022-09-01T02:12:12;19.30;99.90
54082;DHT22;39986;50.770;0.266;2022-09-01T02:14:39;19.30;99.90
54082;DHT22;39986;50.770;0.266;2022-09-01T02:17:04;19.20;99.90
54082;DHT22;39986;50.770;0.266;2022-09-01T02:19:32;19.20;99.90
54082;DHT22;39986;50.770;0.266;2022-09-01T02:21:58;19.20;99.90
54082;DHT22;39986;50.770;0.266;2022-09-01T02:24:24;19.20;99.90
54082;DHT22;39986;50.770;0.266;2022-09-01T02:26:50;19.20;99.90
54082;DHT22;39986;50.770;0.266;2022-09-01T02:29:18;19.20;99.90
54082;DHT22;39986;50.770;0.266;2022-09-01T02:31:46;19.20;99.90
54082;DHT22;39986;50.770;0.266;2022-09-01T02:34:12;19.20;99.90
54082;DHT22;39986;50.770;0.266;2022-09-01T02:36:39;19.30;99.90
54082;DHT22;39986;50.770;0.266;2022-09-01T02:39:14;19.30;99.90
54082;DHT22;39986;50.770;0.266;2022-09-01T02:41:40;19.30;99.90
54082;DHT22;39986;50.770;0.266;2022-09-01T02:44:06;19.30;99.90
54082;DHT22;39986;50.770;0.266;2022-09-01T02:46:38;19.30;99.90
54082;DHT22;39986;50.770;0.266;2022-09-01T02:49:13;19.40;99.90
54082;DHT22;39986;50.770;0.266;2022-09-01T02:51:44;19.40;99.90
54082;DHT22;39986;50.770;0.266;2022-09-01T02:54:11;19.30;99.90
54082;DHT22;39986;50.770;0.266;2022-09-01T02:56:42;19.30;99.90
54082;DHT22;39986;50.770;0.266;2022-09-01T02:59:09;19.30;99.90
54082;DHT22;39986;50.770;0.266;2022-09-01T03:01:37;19.30;99.90
54082;DHT22;39986;50.770;0.266;2022-09-01T03:04:04;19.30;99.90
54082;DHT22;39986;50.770;0.266;2022-09-01T03:06:32;19.30;99.90
54082;DHT22;39986;50.770;0.266;2022-09-01T03:08:58;19.20;99.90
54082;DHT22;39986;50.770;0.266;2022-09-01T03:11:25;19.20;99.90
54082;DHT22;39986;50.770;0.266;2022-09-01T03:13:51;19.20;99.90
54082;DHT22;39986;50.770;0.266;2022-09-01T03:16:17;19.20;99.90
54082;DHT22;39986;50.770;0.266;2022-09-01T03:18:43;19.20;99.90
54082;DHT22;39986;50.770;0.266;2022-09-01T03:21:09;19.10;99.90
54082;DHT22;39986;50.770;0.266;2022-09-01T03:23:39;19.00;99.90
54082;DHT22;39986;50.770;0.266;2022-09-01T03:26:04;19.00;99.90
54082;DHT22;39986;50.770;0.266;2022-09-01T03:28:30;19.00;99.90
54082;DHT22;39986;50.770;0.266;2022-09-01T03:30:56;18.90;99.90
54082;DHT22;39986;50.770;0.266;2022-09-01T03:33:23;18.90;99.90
54082;DHT22;39986;50.770;0.266;2022-09-01T03:35:49;18.80;99.90
54082;DHT22;39986;50.770;0.266;2022-09-01T03:38:15;18.90;99.90
54082;DHT22;39986;50.770;0.266;2022-09-01T03:40:48;18.90;99.90
54082;DHT22;39986;50.770;0.266;2022-09-01T03:43:14;18.90;99.90
54082;DHT22;39986;50.770;0.266;2022-09-01T03:45:41;18.90;99.90
54082;DHT22;39986;50.770;0.266;2022-09-01T03:48:08;18.90;99.90
54082;DHT22;39986;50.770;0.266;2022-09-01T03:50:36;18.80;99.90
54082;DHT22;39986;50.770;0.266;2022-09-01T03:53:04;18.70;99.90
54082;DHT22;39986;50.770;0.266;2022-09-01T03:55:30;18.70;99.90
54082;DHT22;39986;50.770;0.266;2022-09-01T03:57:57;18.80;99.90
54082;DHT22;39986;50.770;0.266;2022-09-01T04:00:25;18.80;99.90
54082;DHT22;39986;50.770;0.266;2022-09-01T04:02:55;18.80;99.90
54082;DHT22;39986;50.770;0.266;2022-09-01T04:05:22;18.80;99.90
54082;DHT22;39986;50.770;0.266;2022-09-01T04:07:49;18.90;99.90
54082;DHT22;39986;50.770;0.266;2022-09-01T04:10:18;18.90;99.90
54082;DHT22;39986;50.770;0.266;2022-09-01T04:12:44;18.90;99.90
54082;DHT22;39986;50.770;0.266;2022-09-01T04:15:12;19.00;99.90
54082;DHT22;39986;50.770;0.266;2022-09-01T04:17:38;19.00;99.90
54082;DHT22;39986;50.770;0.266;2022-09-01T04:20:22;19.10;99.90
54082;DHT22;39986;50.770;0.266;2022-09-01T04:22:48;19.10;99.90
54082;DHT22;39986;50.770;0.266;2022-09-01T04:25:18;19.10;99.90
54082;DHT22;39986;50.770;0.266;2022-09-01T04:27:51;19.20;99.90
54082;DHT22;39986;50.770;0.266;2022-09-01T04:30:20;19.20;99.90
54082;DHT22;39986;50.770;0.266;2022-09-01T04:32:49;19.20;99.90
54082;DHT22;39986;50.770;0.266;2022-09-01T04:35:16;19.20;99.90
54082;DHT22;39986;50.770;0.266;2022-09-01T04:37:43;19.30;99.90
54082;DHT22;39986;50.770;0.266;2022-09-01T04:40:12;19.30;99.90
54082;DHT22;39986;50.770;0.266;2022-09-01T04:42:39;19.20;99.90
54082;DHT22;39986;50.770;0.266;2022-09-01T04:45:07;19.20;99.90
54082;DHT22;39986;50.770;0.266;2022-09-01T04:47:35;19.20;99.90
54082;DHT22;39986;50.770;0.266;2022-09-01T04:50:06;19.30;99.90
54082;DHT22;39986;50.770;0.266;2022-09-01T04:52:37;19.20;99.90
54082;DHT22;39986;50.770;0.266;2022-09-01T04:55:04;19.20;99.90
54082;DHT22;39986;50.770;0.266;2022-09-01T04:57:30;19.20;99.90
54082;DHT22;39986;50.770;0.266;2022-09-01T04:59:55;19.30;99.90
54082;DHT22;39986;50.770;0.266;2022-09-01T05:02:22;19.30;99.90
54082;DHT22;39986;50.770;0.266;2022-09-01T05:04:51;19.20;99.90
54082;DHT22;39986;50.770;0.266;2022-09-01T05:07:18;19.20;99.90
54082;DHT22;39986;50.770;0.266;2022-09-01T05:09:44;19.20;99.90
54082;DHT22;39986;50.770;0.266;2022-09-01T05:12:10;19.20;99.90
54082;DHT22;39986;50.770;0.266;2022-09-01T05:14:42;19.20;99.90
54082;DHT22;39986;50.770;0.266;2022-09-01T05:17:09;19.10;99.90
54082;DHT22;39986;50.770;0.266;2022-09-01T05:19:36;19.20;99.90
54082;DHT22;39986;50.770;0.266;2022-09-01T05:22:02;19.20;99.90
54082;DHT22;39986;50.770;0.266;2022-09-01T05:24:29;19.10;99.90
54082;DHT22;39986;50.770;0.266;2022-09-01T05:26:57;19.10;99.90
54082;DHT22;39986;50.770;0.266;2022-09-01T05:29:24;19.20;99.90
54082;DHT22;39986;50.770;0.266;2022-09-01T05:31:52;19.10;99.90
54082;DHT22;39986;50.770;0.266;2022-09-01T05:34:19;19.20;99.90
54082;DHT22;39986;50.770;0.266;2022-09-01T05:36:51;19.20;99.90
54082;DHT22;39986;50.770;0.266;2022-09-01T05:39:17;19.20;99.90
54082;DHT22;39986;50.770;0.266;2022-09-01T05:41:43;19.20;99.90
54082;DHT22;39986;50.770;0.266;2022-09-01T05:44:10;19.20;99.90
54082;DHT22;39986;50.770;0.266;2022-09-01T05:46:37;19.20;99.90
54082;DHT22;39986;50.770;0.266;2022-09-01T05:49:03;19.20;99.90
54082;DHT22;39986;50.770;0.266;2022-09-01T05:51:30;19.20;99.90
54082;DHT22;39986;50.770;0.266;2022-09-01T05:53:58;19.30;99.90
54082;DHT22;39986;50.770;0.266;2022-09-01T05:56:28;19.30;99.90
54082;DHT22;39986;50.770;0.266;2022-09-01T05:58:55;19.40;99.90
54082;DHT22;39986;50.770;0.266;2022-09-01T06:01:25;19.40;99.90
54082;DHT22;39986;50.770;0.266;2022-09-01T06:03:52;19.50;99.90
54082;DHT22;39986;50.770;0.266;2022-09-01T06:06:29;19.50;99.90
54082;DHT22;39986;50.770;0.266;2022-09-01T06:08:59;19.50;99.90
54082;DHT22;39986;50.770;0.266;2022-09-01T06:11:26;19.50;99.90
54082;DHT22;39986;50.770;0.266;2022-09-01T06:13:54;19.50;99.90
54082;DHT22;39986;50.770;0.266;2022-09-01T06:16:20;19.60;99.90
54082;DHT22;39986;50.770;0.266;2022-09-01T06:18:46;19.60;99.90
54082;DHT22;39986;50.770;0.266;2022-09-01T06:21:11;19.70;99.90
54082;DHT22;39986;50.770;0.266;2022-09-01T06:23:41;19.80;99.90
54082;DHT22;39986;50.770;0.266;2022-09-01T06:26:17;19.80;99.90
54082;DHT22;39986;50.770;0.266;2022-09-01T06:28:43;19.90;99.90
54082;DHT22;39986;50.770;0.266;2022-09-01T06:31:11;19.90;99.90
54082;DHT22;39986;50.770;0.266;2022-09-01T06:33:37;20.00;99.90
54082;DHT22;39986;50.770;0.266;2022-09-01T06:36:03;20.10;99.90
54082;DHT22;39986;50.770;0.266;2022-09-01T06:38:29;20.20;99.90
54082;DHT22;39986;50.770;0.266;2022-09-01T06:40:59;20.20;99.90
54082;DHT22;39986;50.770;0.266;2022-09-01T06:43:25;20.30;99.90
54082;DHT22;39986;50.770;0.266;2022-09-01T06:45:55;20.30;99.90
54082;DHT22;39986;50.770;0.266;2022-09-01T06:48:20;20.40;99.90
54082;DHT22;39986;50.770;0.266;2022-09-01T06:50:48;20.50;99.90
54082;DHT22;39986;50.770;0.266;2022-09-01T06:53:14;20.50;99.90
54082;DHT22;39986;50.770;0.266;2022-09-01T06:55:43;20.70;99.90
54082;DHT22;39986;50.770;0.266;2022-09-01T06:58:11;20.70;99.90
54082;DHT22;39986;50.770;0.266;2022-09-01T07:00:40;20.70;99.90
54082;DHT22;39986;50.770;0.266;2022-09-01T07:03:11;20.70;99.90
54082;DHT22;39986;50.770;0.266;2022-09-01T07:05:39;20.60;99.90
54082;DHT22;39986;50.770;0.266;2022-09-01T07:08:05;20.50;99.90
54082;DHT22;39986;50.770;0.266;2022-09-01T07:10:37;20.50;99.90
54082;DHT22;39986;50.770;0.266;2022-09-01T07:13:04;20.50;99.90
54082;DHT22;39986;50.770;0.266;2022-09-01T07:15:32;20.50;99.90
54082;DHT22;39986;50.770;0.266;2022-09-01T07:17:58;20.50;99.90
54082;DHT22;39986;50.770;0.266;2022-09-01T07:20:25;20.40;99.90
54082;DHT22;39986;50.770;0.266;2022-09-01T07:22:51;20.40;99.90
54082;DHT22;39986;50.770;0.266;2022-09-01T07:25:17;20.30;99.90
54082;DHT22;39986;50.770;0.266;2022-09-01T07:27:45;20.30;99.90
54082;DHT22;39986;50.770;0.266;2022-09-01T07:30:15;20.30;99.90
54082;DHT22;39986;50.770;0.266;2022-09-01T07:32:41;20.40;99.90
54082;DHT22;39986;50.770;0.266;2022-09-01T07:35:19;20.50;99.90
54082;DHT22;39986;50.770;0.266;2022-09-01T07:37:51;20.50;99.90
54082;DHT22;39986;50.770;0.266;2022-09-01T07:40:18;20.50;99.90
54082;DHT22;39986;50.770;0.266;2022-09-01T07:42:45;20.60;99.90
54082;DHT22;39986;50.770;0.266;2022-09-01T07:45:12;20.60;99.90
54082;DHT22;39986;50.770;0.266;2022-09-01T07:47:38;20.60;99.90
54082;DHT22;39986;50.770;0.266;2022-09-01T07:50:04;20.60;99.90
54082;DHT22;39986;50.770;0.266;2022-09-01T07:52:33;20.50;99.90
54082;DHT22;39986;50.770;0.266;2022-09-01T07:55:00;20.50;99.90
54082;DHT22;39986;50.770;0.266;2022-09-01T07:57:25;20.60;99.90
54082;DHT22;39986;50.770;0.266;2022-09-01T07:59:51;20.70;99.90
54082;DHT22;39986;50.770;0.266;2022-09-01T08:02:19;20.90;99.90
54082;DHT22;39986;50.770;0.266;2022-09-01T08:04:45;21.00;99.90
54082;DHT22;39986;50.770;0.266;2022-09-01T08:07:10;21.10;99.90
54082;DHT22;39986;50.770;0.266;2022-09-01T08:09:36;21.10;99.90
54082;DHT22;39986;50.770;0.266;2022-09-01T08:12:03;21.20;99.90
54082;DHT22;39986;50.770;0.266;2022-09-01T08:14:31;21.30;99.90
54082;DHT22;39986;50.770;0.266;2022-09-01T08:16:56;21.60;99.90
54082;DHT22;39986;50.770;0.266;2022-09-01T08:19:22;21.70;99.90
54082;DHT22;39986;50.770;0.266;2022-09-01T08:21:47;21.80;99.90
54082;DHT22;39986;50.770;0.266;2022-09-01T08:24:13;21.70;99.90
54082;DHT22;39986;50.770;0.266;2022-09-01T08:26:39;21.70;99.90
54082;DHT22;39986;50.770;0.266;2022-09-01T08:29:04;21.60;99.90
54082;DHT22;39986;50.770;0.266;2022-09-01T08:31:30;21.60;99.90
54082;DHT22;39986;50.770;0.266;2022-09-01T08:33:56;21.60;99.90
54082;DHT22;39986;50.770;0.266;2022-09-01T08:36:23;21.70;99.90
54082;DHT22;39986;50.770;0.266;2022-09-01T08:38:49;21.60;99.90
54082;DHT22;39986;50.770;0.266;2022-09-01T08:46:24;21.60;99.90
54082;DHT22;39986;50.770;0.266;2022-09-01T08:48:51;21.60;99.90
54082;DHT22;39986;50.770;0.266;2022-09-01T08:56:19;21.80;99.90
54082;DHT22;39986;50.770;0.266;2022-09-01T08:58:46;21.90;99.90
54082;DHT22;39986;50.770;0.266;2022-09-01T09:01:16;22.00;99.90
54082;DHT22;39986;50.770;0.266;2022-09-01T09:06:24;22.40;99.90
54082;DHT22;39986;50.770;0.266;2022-09-01T09:16:24;23.10;99.90
54082;DHT22;39986;50.770;0.266;2022-09-01T09:18:54;23.50;99.90
54082;DHT22;39986;50.770;0.266;2022-09-01T09:23:54;23.70;99.90
54082;DHT22;39986;50.770;0.266;2022-09-01T09:26:21;23.50;99.90
54082;DHT22;39986;50.770;0.266;2022-09-01T09:28:47;23.40;99.90
54082;DHT22;39986;50.770;0.266;2022-09-01T09:33:52;23.00;99.90
54082;DHT22;39986;50.770;0.266;2022-09-01T09:36:19;23.10;99.90
54082;DHT22;39986;50.770;0.266;2022-09-01T09:38:45;23.40;99.90
54082;DHT22;39986;50.770;0.266;2022-09-01T09:41:16;23.80;99.90
54082;DHT22;39986;50.770;0.266;2022-09-01T09:43:51;24.10;99.90
54082;DHT22;39986;50.770;0.266;2022-09-01T09:46:38;24.30;99.90
54082;DHT22;39986;50.770;0.266;2022-09-01T09:49:12;24.60;99.90
54082;DHT22;39986;50.770;0.266;2022-09-01T09:51:40;24.80;99.90
54082;DHT22;39986;50.770;0.266;2022-09-01T09:54:23;24.90;99.90
54082;DHT22;39986;50.770;0.266;2022-09-01T09:57:04;25.20;99.90
54082;DHT22;39986;50.770;0.266;2022-09-01T09:59:32;25.30;99.90
54082;DHT22;39986;50.770;0.266;2022-09-01T10:01:58;25.60;99.90
54082;DHT22;39986;50.770;0.266;2022-09-01T10:04:35;25.80;99.90
54082;DHT22;39986;50.770;0.266;2022-09-01T10:07:04;25.70;99.90
54082;DHT22;39986;50.770;0.266;2022-09-01T10:09:46;25.70;99.90
54082;DHT22;39986;50.770;0.266;2022-09-01T10:12:17;25.80;99.90
54082;DHT22;39986;50.770;0.266;2022-09-01T10:14:51;25.90;99.90
54082;DHT22;39986;50.770;0.266;2022-09-01T10:17:39;25.90;99.90
54082;DHT22;39986;50.770;0.266;2022-09-01T10:20:16;26.00;99.90
54082;DHT22;39986;50.770;0.266;2022-09-01T10:22:43;26.40;99.90
54082;DHT22;39986;50.770;0.266;2022-09-01T10:25:10;26.30;99.90
54082;DHT22;39986;50.770;0.266;2022-09-01T10:27:39;25.60;99.90
54082;DHT22;39986;50.770;0.266;2022-09-01T10:30:10;25.20;99.90
54082;DHT22;39986;50.770;0.266;2022-09-01T10:32:52;25.40;99.90
54082;DHT22;39986;50.770;0.266;2022-09-01T10:35:26;25.60;99.90
54082;DHT22;39986;50.770;0.266;2022-09-01T10:37:52;25.50;99.90
54082;DHT22;39986;50.770;0.266;2022-09-01T10:40:40;25.40;99.90
54082;DHT22;39986;50.770;0.266;2022-09-01T10:45:47;24.90;99.90
54082;DHT22;39986;50.770;0.266;2022-09-01T10:50:44;23.90;99.90
54082;DHT22;39986;50.770;0.266;2022-09-01T10:53:36;23.80;99.90
54082;DHT22;39986;50.770;0.266;2022-09-01T10:56:14;24.00;99.90
54082;DHT22;39986;50.770;0.266;2022-09-01T11:01:09;23.90;99.90
54082;DHT22;39986;50.770;0.266;2022-09-01T11:03:36;23.70;99.90
54082;DHT22;39986;50.770;0.266;2022-09-01T11:06:03;23.80;99.90
54082;DHT22;39986;50.770;0.266;2022-09-01T11:11:06;25.90;99.90
54082;DHT22;39986;50.770;0.266;2022-09-01T11:13:45;27.50;99.90
54082;DHT22;39986;50.770;0.266;2022-09-01T11:21:41;28.50;99.90
54082;DHT22;39986;50.770;0.266;2022-09-01T11:26:51;27.80;99.90
54082;DHT22;39986;50.770;0.266;2022-09-01T11:32:03;28.60;99.90
54082;DHT22;39986;50.770;0.266;2022-09-01T11:34:29;30.30;99.90
54082;DHT22;39986;50.770;0.266;2022-09-01T11:36:57;30.10;99.90
54082;DHT22;39986;50.770;0.266;2022-09-01T11:41:55;29.30;99.90
54082;DHT22;39986;50.770;0.266;2022-09-01T11:46:51;29.80;99.90
54082;DHT22;39986;50.770;0.266;2022-09-01T11:49:27;29.10;99.90
54082;DHT22;39986;50.770;0.266;2022-09-01T11:51:53;28.90;99.90
54082;DHT22;39986;50.770;0.266;2022-09-01T11:54:19;29.30;99.90
54082;DHT22;39986;50.770;0.266;2022-09-01T11:56:45;28.00;99.90
54082;DHT22;39986;50.770;0.266;2022-09-01T11:59:10;27.90;99.90
54082;DHT22;39986;50.770;0.266;2022-09-01T12:01:37;29.00;99.90
54082;DHT22;39986;50.770;0.266;2022-09-01T12:04:23;29.70;99.90
54082;DHT22;39986;50.770;0.266;2022-09-01T12:06:50;30.70;99.90
54082;DHT22;39986;50.770;0.266;2022-09-01T12:09:16;32.40;99.90
54082;DHT22;39986;50.770;0.266;2022-09-01T12:11:42;32.50;99.10
54082;DHT22;39986;50.770;0.266;2022-09-01T12:14:09;33.00;98.90
54082;DHT22;39986;50.770;0.266;2022-09-01T12:17:02;34.50;96.20
54082;DHT22;39986;50.770;0.266;2022-09-01T12:19:30;33.90;96.10
54082;DHT22;39986;50.770;0.266;2022-09-01T12:24:24;32.70;97.40
54082;DHT22;39986;50.770;0.266;2022-09-01T12:26:51;33.20;96.90
54082;DHT22;39986;50.770;0.266;2022-09-01T12:29:23;33.20;96.40
54082;DHT22;39986;50.770;0.266;2022-09-01T12:31:49;33.70;95.50
54082;DHT22;39986;50.770;0.266;2022-09-01T12:37:01;33.90;93.90
54082;DHT22;39986;50.770;0.266;2022-09-01T12:39:31;33.20;94.90
54082;DHT22;39986;50.770;0.266;2022-09-01T12:42:05;33.00;94.20
54082;DHT22;39986;50.770;0.266;2022-09-01T12:44:32;31.60;95.70
54082;DHT22;39986;50.770;0.266;2022-09-01T12:47:05;30.70;96.90
54082;DHT22;39986;50.770;0.266;2022-09-01T12:49:36;30.40;97.70
54082;DHT22;39986;50.770;0.266;2022-09-01T12:55:14;30.80;97.40
54082;DHT22;39986;50.770;0.266;2022-09-01T12:57:39;30.90;96.80
54082;DHT22;39986;50.770;0.266;2022-09-01T13:02:39;30.00;99.00
54082;DHT22;39986;50.770;0.266;2022-09-01T13:07:45;30.00;99.20
54082;DHT22;39986;50.770;0.266;2022-09-01T13:10:11;30.10;98.80
54082;DHT22;39986;50.770;0.266;2022-09-01T13:12:43;29.90;99.60
54082;DHT22;39986;50.770;0.266;2022-09-01T13:15:11;29.30;99.90
54082;DHT22;39986;50.770;0.266;2022-09-01T13:17:36;28.60;99.90
54082;DHT22;39986;50.770;0.266;2022-09-01T13:20:27;28.30;99.90
54082;DHT22;39986;50.770;0.266;2022-09-01T13:22:53;27.70;99.90
54082;DHT22;39986;50.770;0.266;2022-09-01T13:25:19;27.40;99.90
54082;DHT22;39986;50.770;0.266;2022-09-01T13:27:45;27.20;99.90
54082;DHT22;39986;50.770;0.266;2022-09-01T13:30:15;27.40;99.90
54082;DHT22;39986;50.770;0.266;2022-09-01T13:32:42;28.40;99.90
54082;DHT22;39986;50.770;0.266;2022-09-01T13:35:09;30.00;99.90
54082;DHT22;39986;50.770;0.266;2022-09-01T13:37:34;30.00;99.90
54082;DHT22;39986;50.770;0.266;2022-09-01T13:40:00;29.20;99.90
54082;DHT22;39986;50.770;0.266;2022-09-01T13:42:26;28.40;99.90
54082;DHT22;39986;50.770;0.266;2022-09-01T13:44:51;27.50;99.90
54082;DHT22;39986;50.770;0.266;2022-09-01T13:47:17;27.00;99.90
54082;DHT22;39986;50.770;0.266;2022-09-01T13:49:42;26.60;99.90
54082;DHT22;39986;50.770;0.266;2022-09-01T13:52:09;26.50;99.90
54082;DHT22;39986;50.770;0.266;2022-09-01T13:54:39;26.20;99.90
54082;DHT22;39986;50.770;0.266;2022-09-01T13:57:04;25.70;99.90
54082;DHT22;39986;50.770;0.266;2022-09-01T13:59:30;25.60;99.90
54082;DHT22;39986;50.770;0.266;2022-09-01T14:01:57;25.20;99.90
54082;DHT22;39986;50.770;0.266;2022-09-01T14:04:22;24.90;99.90
54082;DHT22;39986;50.770;0.266;2022-09-01T14:06:48;24.90;99.90
54082;DHT22;39986;50.770;0.266;2022-09-01T14:09:14;24.50;99.90
54082;DHT22;39986;50.770;0.266;2022-09-01T14:11:39;24.40;99.90
54082;DHT22;39986;50.770;0.266;2022-09-01T14:14:05;24.00;99.90
54082;DHT22;39986;50.770;0.266;2022-09-01T14:16:32;23.70;99.90
54082;DHT22;39986;50.770;0.266;2022-09-01T14:18:58;23.70;99.90
54082;DHT22;39986;50.770;0.266;2022-09-01T14:21:26;23.50;99.90
54082;DHT22;39986;50.770;0.266;2022-09-01T14:23:52;23.40;99.90
54082;DHT22;39986;50.770;0.266;2022-09-01T14:26:18;23.40;99.90
54082;DHT22;39986;50.770;0.266;2022-09-01T14:28:44;23.60;99.90
54082;DHT22;39986;50.770;0.266;2022-09-01T14:31:12;23.70;99.90
54082;DHT22;39986;50.770;0.266;2022-09-01T14:33:39;24.00;99.90
54082;DHT22;39986;50.770;0.266;2022-09-01T14:36:05;24.30;99.90
54082;DHT22;39986;50.770;0.266;2022-09-01T14:38:31;24.40;99.90
54082;DHT22;39986;50.770;0.266;2022-09-01T14:40:57;24.70;99.90
54082;DHT22;39986;50.770;0.266;2022-09-01T14:43:23;24.90;99.90
54082;DHT22;39986;50.770;0.266;2022-09-01T14:46:00;25.00;99.90
54082;DHT22;39986;50.770;0.266;2022-09-01T14:48:25;25.20;99.90
54082;DHT22;39986;50.770;0.266;2022-09-01T14:50:51;25.30;99.90
54082;DHT22;39986;50.770;0.266;2022-09-01T14:53:17;25.20;99.90
54082;DHT22;39986;50.770;0.266;2022-09-01T14:55:43;25.10;99.90
54082;DHT22;39986;50.770;0.266;2022-09-01T14:58:34;25.00;99.90
54082;DHT22;39986;50.770;0.266;2022-09-01T15:01:01;24.90;99.90
54082;DHT22;39986;50.770;0.266;2022-09-01T15:03:27;25.00;99.90
54082;DHT22;39986;50.770;0.266;2022-09-01T15:05:52;25.10;99.90
54082;DHT22;39986;50.770;0.266;2022-09-01T15:08:19;25.20;99.90
54082;DHT22;39986;50.770;0.266;2022-09-01T15:10:44;25.30;99.90
54082;DHT22;39986;50.770;0.266;2022-09-01T15:13:10;25.30;99.90
54082;DHT22;39986;50.770;0.266;2022-09-01T15:15:38;25.30;99.90
54082;DHT22;39986;50.770;0.266;2022-09-01T15:18:04;25.40;99.90
54082;DHT22;39986;50.770;0.266;2022-09-01T15:20:30;25.40;99.90
54082;DHT22;39986;50.770;0.266;2022-09-01T15:23:15;25.30;99.90
54082;DHT22;39986;50.770;0.266;2022-09-01T15:25:41;25.30;99.90
54082;DHT22;39986;50.770;0.266;2022-09-01T15:28:07;25.30;99.90
54082;DHT22;39986;50.770;0.266;2022-09-01T15:30:33;25.40;99.90
54082;DHT22;39986;50.770;0.266;2022-09-01T15:32:59;25.40;99.90
54082;DHT22;39986;50.770;0.266;2022-09-01T15:35:25;25.60;99.90
54082;DHT22;39986;50.770;0.266;2022-09-01T15:37:51;25.70;99.90
54082;DHT22;39986;50.770;0.266;2022-09-01T15:40:17;25.60;99.90
54082;DHT22;39986;50.770;0.266;2022-09-01T15:42:43;25.70;99.90
54082;DHT22;39986;50.770;0.266;2022-09-01T15:45:13;25.70;99.90
54082;DHT22;39986;50.770;0.266;2022-09-01T15:47:39;25.90;99.90
54082;DHT22;39986;50.770;0.266;2022-09-01T15:50:06;26.00;99.90
54082;DHT22;39986;50.770;0.266;2022-09-01T15:52:32;26.10;99.90
54082;DHT22;39986;50.770;0.266;2022-09-01T15:54:58;26.20;99.90
54082;DHT22;39986;50.770;0.266;2022-09-01T15:57:23;26.00;99.90
54082;DHT22;39986;50.770;0.266;2022-09-01T15:59:49;26.10;99.90
54082;DHT22;39986;50.770;0.266;2022-09-01T16:02:14;26.20;99.90
54082;DHT22;39986;50.770;0.266;2022-09-01T16:05:00;26.20;99.90
54082;DHT22;39986;50.770;0.266;2022-09-01T16:07:26;26.10;99.90
54082;DHT22;39986;50.770;0.266;2022-09-01T16:09:51;26.20;99.90
54082;DHT22;39986;50.770;0.266;2022-09-01T16:12:25;26.40;99.90
54082;DHT22;39986;50.770;0.266;2022-09-01T16:14:52;26.50;99.90
54082;DHT22;39986;50.770;0.266;2022-09-01T16:17:36;26.70;99.90
54082;DHT22;39986;50.770;0.266;2022-09-01T16:20:07;26.70;99.90
54082;DHT22;39986;50.770;0.266;2022-09-01T16:22:36;26.70;99.90
54082;DHT22;39986;50.770;0.266;2022-09-01T16:25:22;26.80;99.90
54082;DHT22;39986;50.770;0.266;2022-09-01T16:27:48;26.50;99.90
54082;DHT22;39986;50.770;0.266;2022-09-01T16:30:18;26.40;99.90
54082;DHT22;39986;50.770;0.266;2022-09-01T16:32:47;26.30;99.90
54082;DHT22;39986;50.770;0.266;2022-09-01T16:35:14;26.00;99.90
54082;DHT22;39986;50.770;0.266;2022-09-01T16:43:05;25.80;99.90
54082;DHT22;39986;50.770;0.266;2022-09-01T16:55:43;25.60;99.90
54082;DHT22;39986;50.770;0.266;2022-09-01T17:06:35;25.10;99.90